sensor_id;sensor_type;location;lat;lon;timestamp;pressure;altitude;pressure_sealevel;temperature;humidity
30856;BME280;17570;0.000;0.000;2023-08-31T11:31:42;96621.48;;;34.59;33.18
30856;BME280;17570;0.000;0.000;2023-08-31T11:34:13;96604.66;;;36.19;31.90
30856;BME280;17570;0.000;0.000;2023-08-31T11:36:44;96609.41;;;38.07;28.75
30856;BME280;17570;0.000;0.000;2023-08-31T11:39:12;96609.73;;;39.21;27.28
30856;BME280;17570;0.000;0.000;2023-08-31T11:41:40;96598.52;;;39.88;25.91
30856;BME280;17570;0.000;0.000;2023-08-31T11:44:09;96599.11;;;40.37;24.70
30856;BME280;17570;0.000;0.000;2023-08-31T11:46:37;96599.51;;;40.74;23.95
30856;BME280;17570;0.000;0.000;2023-08-31T11:49:05;96590.14;;;41.01;23.19
30856;BME280;17570;0.000;0.000;2023-08-31T11:51:33;96602.16;;;41.29;22.69
30856;BME280;17570;0.000;0.000;2023-08-31T11:54:02;96591.19;;;41.47;22.31
30856;BME280;17570;0.000;0.000;2023-08-31T11:56:45;96592.86;;;41.60;22.35
30856;BME280;17570;0.000;0.000;2023-08-31T11:59:16;96590.66;;;41.74;22.02
30856;BME280;17570;0.000;0.000;2023-08-31T12:01:45;96588.34;;;41.85;21.64
30856;BME280;17570;0.000;0.000;2023-08-31T12:04:21;96585.27;;;42.08;21.44
30856;BME280;17570;0.000;0.000;2023-08-31T12:06:49;96586.03;;;42.29;21.05
30856;BME280;17570;0.000;0.000;2023-08-31T12:09:17;96582.99;;;42.43;21.33
30856;BME280;17570;0.000;0.000;2023-08-31T12:11:51;96584.90;;;42.63;20.61
30856;BME280;17570;0.000;0.000;2023-08-31T12:14:25;96584.56;;;42.89;20.32
30856;BME280;17570;0.000;0.000;2023-08-31T12:17:00;96582.43;;;43.07;20.42
30856;BME280;17570;0.000;0.000;2023-08-31T12:19:22;96575.91;;;43.36;20.18
30856;BME280;17570;0.000;0.000;2023-08-31T12:21:51;96583.39;;;43.64;20.18
30856;BME280;17570;0.000;0.000;2023-08-31T12:24:19;96580.16;;;43.86;19.54
30856;BME280;17570;0.000;0.000;2023-08-31T12:26:49;96579.72;;;44.12;19.63
30856;BME280;17570;0.000;0.000;2023-08-31T12:29:17;96581.20;;;44.38;19.27
30856;BME280;17570;0.000;0.000;2023-08-31T12:31:44;96575.12;;;44.60;18.92
30856;BME280;17570;0.000;0.000;2023-08-31T12:34:12;96577.89;;;44.92;18.85
30856;BME280;17570;0.000;0.000;2023-08-31T12:36:39;96572.73;;;45.22;18.52
30856;BME280;17570;0.000;0.000;2023-08-31T12:39:07;96575.70;;;45.33;18.01
30856;BME280;17570;0.000;0.000;2023-08-31T12:41:37;96559.20;;;45.29;18.11
30856;BME280;17570;0.000;0.000;2023-08-31T12:44:05;96570.50;;;45.27;18.15
30856;BME280;17570;0.000;0.000;2023-08-31T12:46:33;96575.91;;;45.40;17.43
30856;BME280;17570;0.000;0.000;2023-08-31T12:49:01;96571.30;;;45.28;16.44
30856;BME280;17570;0.000;0.000;2023-08-31T12:51:30;96572.22;;;45.16;16.44
30856;BME280;17570;0.000;0.000;2023-08-31T12:53:57;96571.77;;;45.14;17.80
30856;BME280;17570;0.000;0.000;2023-08-31T12:56:26;96570.59;;;45.31;18.38
30856;BME280;17570;0.000;0.000;2023-08-31T12:58:54;96562.65;;;45.26;18.50
30856;BME280;17570;0.000;0.000;2023-08-31T13:01:21;96565.30;;;45.22;17.76
30856;BME280;17570;0.000;0.000;2023-08-31T13:03:52;96566.97;;;45.27;18.77
30856;BME280;17570;0.000;0.000;2023-08-31T13:06:20;96564.41;;;45.34;17.95
30856;BME280;17570;0.000;0.000;2023-08-31T13:08:47;96570.02;;;45.57;18.97
30856;BME280;17570;0.000;0.000;2023-08-31T13:11:16;96572.48;;;45.62;19.89
30856;BME280;17570;0.000;0.000;2023-08-31T13:13:45;96566.25;;;45.65;20.39
30856;BME280;17570;0.000;0.000;2023-08-31T13:16:13;96568.19;;;45.81;20.28
30856;BME280;17570;0.000;0.000;2023-08-31T13:18:40;96565.50;;;46.03;19.97
30856;BME280;17570;0.000;0.000;2023-08-31T13:21:08;96567.14;;;46.27;19.64
30856;BME280;17570;0.000;0.000;2023-08-31T13:23:35;96568.87;;;46.36;19.57
30856;BME280;17570;0.000;0.000;2023-08-31T13:26:03;96570.45;;;46.37;19.08
30856;BME280;17570;0.000;0.000;2023-08-31T13:28:30;96576.66;;;46.34;18.28
30856;BME280;17570;0.000;0.000;2023-08-31T13:30:58;96572.64;;;46.27;18.28
30856;BME280;17570;0.000;0.000;2023-08-31T13:33:27;96577.19;;;46.20;17.63
30856;BME280;17570;0.000;0.000;2023-08-31T13:35:57;96572.49;;;46.01;16.64
30856;BME280;17570;0.000;0.000;2023-08-31T13:38:25;96577.63;;;45.83;15.30
30856;BME280;17570;0.000;0.000;2023-08-31T13:40:56;96575.80;;;45.71;16.10
30856;BME280;17570;0.000;0.000;2023-08-31T13:43:26;96570.08;;;45.61;15.40
30856;BME280;17570;0.000;0.000;2023-08-31T13:45:53;96573.30;;;45.47;15.45
30856;BME280;17570;0.000;0.000;2023-08-31T13:48:21;96572.17;;;45.32;15.09
30856;BME280;17570;0.000;0.000;2023-08-31T13:50:49;96566.56;;;45.09;13.76
30856;BME280;17570;0.000;0.000;2023-08-31T13:53:16;96569.95;;;44.87;13.78
30856;BME280;17570;0.000;0.000;2023-08-31T13:55:44;96575.12;;;44.60;14.02
30856;BME280;17570;0.000;0.000;2023-08-31T13:58:12;96580.51;;;44.41;14.55
30856;BME280;17570;0.000;0.000;2023-08-31T14:00:39;96577.84;;;44.16;14.23
30856;BME280;17570;0.000;0.000;2023-08-31T14:03:08;96583.01;;;43.90;14.27
30856;BME280;17570;0.000;0.000;2023-08-31T14:05:35;96577.59;;;43.65;14.46
30856;BME280;17570;0.000;0.000;2023-08-31T14:08:03;96586.30;;;43.43;15.05
30856;BME280;17570;0.000;0.000;2023-08-31T14:10:31;96575.03;;;43.20;14.93
30856;BME280;17570;0.000;0.000;2023-08-31T14:13:02;96572.38;;;42.99;14.95
30856;BME280;17570;0.000;0.000;2023-08-31T14:15:29;96574.77;;;42.76;15.61
30856;BME280;17570;0.000;0.000;2023-08-31T14:17:57;96578.36;;;42.55;15.38
30856;BME280;17570;0.000;0.000;2023-08-31T14:20:24;96570.70;;;42.37;15.75
30856;BME280;17570;0.000;0.000;2023-08-31T14:22:52;96575.20;;;42.20;16.24
30856;BME280;17570;0.000;0.000;2023-08-31T14:25:19;96574.56;;;42.02;16.17
30856;BME280;17570;0.000;0.000;2023-08-31T14:27:49;96581.63;;;41.83;16.46
30856;BME280;17570;0.000;0.000;2023-08-31T14:30:16;96580.13;;;41.64;17.12
30856;BME280;17570;0.000;0.000;2023-08-31T14:32:43;96577.36;;;41.52;17.35
30856;BME280;17570;0.000;0.000;2023-08-31T14:35:11;96586.13;;;41.37;17.47
30856;BME280;17570;0.000;0.000;2023-08-31T14:37:39;96587.13;;;41.23;17.42
30856;BME280;17570;0.000;0.000;2023-08-31T14:40:07;96578.22;;;41.14;17.74
30856;BME280;17570;0.000;0.000;2023-08-31T14:42:35;96581.48;;;40.99;17.90
30856;BME280;17570;0.000;0.000;2023-08-31T14:45:03;96589.99;;;40.89;18.13
30856;BME280;17570;0.000;0.000;2023-08-31T14:47:31;96584.92;;;40.78;18.12
30856;BME280;17570;0.000;0.000;2023-08-31T14:49:58;96591.06;;;40.67;17.48
30856;BME280;17570;0.000;0.000;2023-08-31T14:52:26;96586.75;;;40.57;18.16
30856;BME280;17570;0.000;0.000;2023-08-31T14:54:53;96589.35;;;40.36;18.16
30856;BME280;17570;0.000;0.000;2023-08-31T14:57:21;96592.72;;;40.24;18.55
30856;BME280;17570;0.000;0.000;2023-08-31T14:59:49;96592.60;;;40.12;18.18
30856;BME280;17570;0.000;0.000;2023-08-31T15:02:18;96597.05;;;39.99;18.91
30856;BME280;17570;0.000;0.000;2023-08-31T15:04:47;96595.92;;;39.92;18.90
30856;BME280;17570;0.000;0.000;2023-08-31T15:07:17;96595.79;;;39.79;19.35
30856;BME280;17570;0.000;0.000;2023-08-31T15:09:45;96587.30;;;39.72;20.28
30856;BME280;17570;0.000;0.000;2023-08-31T15:12:14;96590.31;;;39.62;19.87
30856;BME280;17570;0.000;0.000;2023-08-31T15:14:41;96588.88;;;39.56;20.00
30856;BME280;17570;0.000;0.000;2023-08-31T15:17:09;96587.44;;;39.50;20.04
30856;BME280;17570;0.000;0.000;2023-08-31T15:19:36;96583.08;;;39.40;20.26
30856;BME280;17570;0.000;0.000;2023-08-31T15:22:04;96592.05;;;39.32;20.34
30856;BME280;17570;0.000;0.000;2023-08-31T15:24:31;96593.28;;;39.26;20.50
30856;BME280;17570;0.000;0.000;2023-08-31T15:26:59;96598.69;;;39.17;20.05
30856;BME280;17570;0.000;0.000;2023-08-31T15:29:26;96598.95;;;39.07;20.42
30856;BME280;17570;0.000;0.000;2023-08-31T15:31:55;96587.77;;;39.00;20.63
30856;BME280;17570;0.000;0.000;2023-08-31T15:34:22;96595.27;;;38.94;20.48
30856;BME280;17570;0.000;0.000;2023-08-31T15:36:50;96592.38;;;38.91;20.83
30856;BME280;17570;0.000;0.000;2023-08-31T15:39:18;96595.84;;;38.83;22.53
30856;BME280;17570;0.000;0.000;2023-08-31T15:41:45;96593.27;;;38.77;21.91
30856;BME280;17570;0.000;0.000;2023-08-31T15:44:13;96586.36;;;38.71;22.30
30856;BME280;17570;0.000;0.000;2023-08-31T15:46:40;96599.88;;;38.63;22.72
30856;BME280;17570;0.000;0.000;2023-08-31T15:49:08;96596.19;;;38.59;22.93
30856;BME280;17570;0.000;0.000;2023-08-31T15:51:35;96596.64;;;38.52;23.07
30856;BME280;17570;0.000;0.000;2023-08-31T15:54:03;96599.47;;;38.47;22.57
30856;BME280;17570;0.000;0.000;2023-08-31T15:56:32;96602.95;;;38.39;22.81
30856;BME280;17570;0.000;0.000;2023-08-31T15:58:59;96608.00;;;38.32;22.99
30856;BME280;17570;0.000;0.000;2023-08-31T16:01:27;96603.28;;;38.23;23.31
30856;BME280;17570;0.000;0.000;2023-08-31T16:03:56;96603.06;;;38.11;23.51
30856;BME280;17570;0.000;0.000;2023-08-31T16:06:24;96605.09;;;38.06;23.75
30856;BME280;17570;0.000;0.000;2023-08-31T16:08:52;96608.73;;;38.01;24.00
30856;BME280;17570;0.000;0.000;2023-08-31T16:11:19;96612.36;;;37.96;24.38
30856;BME280;17570;0.000;0.000;2023-08-31T16:13:48;96615.60;;;37.85;24.78
30856;BME280;17570;0.000;0.000;2023-08-31T16:16:16;96614.21;;;37.73;25.10
30856;BME280;17570;0.000;0.000;2023-08-31T16:18:43;96619.44;;;37.70;25.79
30856;BME280;17570;0.000;0.000;2023-08-31T16:21:11;96623.38;;;37.64;25.94
30856;BME280;17570;0.000;0.000;2023-08-31T16:23:39;96628.02;;;37.49;25.84
30856;BME280;17570;0.000;0.000;2023-08-31T16:26:06;96633.63;;;37.39;26.20
30856;BME280;17570;0.000;0.000;2023-08-31T16:28:35;96641.13;;;37.28;26.28
30856;BME280;17570;0.000;0.000;2023-08-31T16:31:02;96644.25;;;37.22;26.30
30856;BME280;17570;0.000;0.000;2023-08-31T16:33:30;96647.14;;;37.12;26.78
30856;BME280;17570;0.000;0.000;2023-08-31T16:36:00;96655.18;;;37.03;26.86
30856;BME280;17570;0.000;0.000;2023-08-31T16:38:32;96660.48;;;36.94;27.21
30856;BME280;17570;0.000;0.000;2023-08-31T16:40:59;96666.33;;;36.83;27.43
30856;BME280;17570;0.000;0.000;2023-08-31T16:43:27;96669.94;;;36.78;27.69
30856;BME280;17570;0.000;0.000;2023-08-31T16:46:05;96673.53;;;36.73;27.97
30856;BME280;17570;0.000;0.000;2023-08-31T16:48:25;96673.93;;;36.67;28.45
30856;BME280;17570;0.000;0.000;2023-08-31T16:50:54;96678.41;;;36.58;28.59
30856;BME280;17570;0.000;0.000;2023-08-31T16:53:21;96680.09;;;36.53;28.81
30856;BME280;17570;0.000;0.000;2023-08-31T16:55:49;96687.50;;;36.48;29.07
30856;BME280;17570;0.000;0.000;2023-08-31T16:58:16;96684.93;;;36.38;29.32
30856;BME280;17570;0.000;0.000;2023-08-31T17:00:44;96681.48;;;36.32;29.48
30856;BME280;17570;0.000;0.000;2023-08-31T17:03:11;96683.55;;;36.21;29.04
30856;BME280;17570;0.000;0.000;2023-08-31T17:05:39;96684.42;;;36.17;29.18
30856;BME280;17570;0.000;0.000;2023-08-31T17:08:07;96689.11;;;36.11;29.22
30856;BME280;17570;0.000;0.000;2023-08-31T17:10:37;96688.66;;;36.04;29.01
30856;BME280;17570;0.000;0.000;2023-08-31T17:13:04;96694.19;;;35.94;29.11
30856;BME280;17570;0.000;0.000;2023-08-31T17:15:31;96705.06;;;35.89;29.16
30856;BME280;17570;0.000;0.000;2023-08-31T17:17:59;96705.14;;;35.84;29.11
30856;BME280;17570;0.000;0.000;2023-08-31T17:20:26;96713.61;;;35.77;29.13
30856;BME280;17570;0.000;0.000;2023-08-31T17:22:55;96719.34;;;35.70;29.03
30856;BME280;17570;0.000;0.000;2023-08-31T17:25:23;96722.62;;;35.67;29.64
30856;BME280;17570;0.000;0.000;2023-08-31T17:27:51;96729.19;;;35.61;29.79
30856;BME280;17570;0.000;0.000;2023-08-31T17:30:18;96728.15;;;35.57;29.91
30856;BME280;17570;0.000;0.000;2023-08-31T17:32:46;96734.14;;;35.54;29.98
30856;BME280;17570;0.000;0.000;2023-08-31T17:35:13;96737.17;;;35.47;30.02
30856;BME280;17570;0.000;0.000;2023-08-31T17:37:41;96756.10;;;35.42;30.38
30856;BME280;17570;0.000;0.000;2023-08-31T17:40:08;96801.75;;;35.39;30.33
30856;BME280;17570;0.000;0.000;2023-08-31T17:42:36;96796.95;;;35.36;30.34
30856;BME280;17570;0.000;0.000;2023-08-31T17:45:04;96821.61;;;35.24;29.05
30856;BME280;17570;0.000;0.000;2023-08-31T17:47:31;96830.30;;;35.21;29.20
30856;BME280;17570;0.000;0.000;2023-08-31T17:49:59;96843.80;;;35.16;29.48
30856;BME280;17570;0.000;0.000;2023-08-31T17:52:27;96869.52;;;35.08;29.95
30856;BME280;17570;0.000;0.000;2023-08-31T17:54:54;96882.77;;;35.05;29.91
30856;BME280;17570;0.000;0.000;2023-08-31T17:57:22;96884.16;;;34.92;30.43
30856;BME280;17570;0.000;0.000;2023-08-31T17:59:51;96892.88;;;34.78;31.03
30856;BME280;17570;0.000;0.000;2023-08-31T18:02:19;96913.42;;;34.69;31.54
30856;BME280;17570;0.000;0.000;2023-08-31T18:04:48;96924.30;;;34.54;31.77
30856;BME280;17570;0.000;0.000;2023-08-31T18:07:16;96936.72;;;34.40;32.20
30856;BME280;17570;0.000;0.000;2023-08-31T18:09:43;96936.52;;;34.21;32.75
30856;BME280;17570;0.000;0.000;2023-08-31T18:12:11;96936.00;;;34.09;33.25
30856;BME280;17570;0.000;0.000;2023-08-31T18:14:39;96935.23;;;33.98;33.65
30856;BME280;17570;0.000;0.000;2023-08-31T18:17:08;96926.62;;;33.86;34.31
30856;BME280;17570;0.000;0.000;2023-08-31T18:19:36;96924.48;;;33.72;34.78
30856;BME280;17570;0.000;0.000;2023-08-31T18:22:03;96922.87;;;33.61;35.05
30856;BME280;17570;0.000;0.000;2023-08-31T18:24:31;96919.38;;;33.50;35.32
30856;BME280;17570;0.000;0.000;2023-08-31T18:26:58;96913.70;;;33.42;35.37
30856;BME280;17570;0.000;0.000;2023-08-31T18:29:26;96909.13;;;33.32;35.49
30856;BME280;17570;0.000;0.000;2023-08-31T18:31:53;96917.73;;;33.24;35.86
30856;BME280;17570;0.000;0.000;2023-08-31T18:34:21;96921.22;;;33.14;35.73
30856;BME280;17570;0.000;0.000;2023-08-31T18:36:49;96925.50;;;33.00;35.94
30856;BME280;17570;0.000;0.000;2023-08-31T18:39:16;96936.22;;;32.90;36.01
30856;BME280;17570;0.000;0.000;2023-08-31T18:41:44;96929.21;;;32.79;36.04
30856;BME280;17570;0.000;0.000;2023-08-31T18:44:12;96937.23;;;32.73;36.28
30856;BME280;17570;0.000;0.000;2023-08-31T18:46:39;96935.08;;;32.65;36.44
30856;BME280;17570;0.000;0.000;2023-08-31T18:49:07;96938.00;;;32.59;36.46
30856;BME280;17570;0.000;0.000;2023-08-31T18:51:35;96937.69;;;32.50;36.00
30856;BME280;17570;0.000;0.000;2023-08-31T18:54:04;96943.84;;;32.40;35.87
30856;BME280;17570;0.000;0.000;2023-08-31T18:56:32;96938.16;;;32.32;36.19
30856;BME280;17570;0.000;0.000;2023-08-31T18:58:59;96937.30;;;32.26;36.65
30856;BME280;17570;0.000;0.000;2023-08-31T19:01:27;96949.89;;;32.20;37.08
30856;BME280;17570;0.000;0.000;2023-08-31T19:03:55;96955.78;;;32.17;36.84
